AirNav   Everest Fuels
 
 1413 users online  

8I3 Glenndale Airport
Kokomo, Indiana, USA

GOING TO KOKOMO?


FAA INFORMATION EFFECTIVE 16 JULY 2020

Location

FAA Identifier: 8I3
Lat/Long: 40-26-00.1350N 086-12-11.9780W
40-26.002250N 086-12.199633W
40.4333708,-86.2033272
(estimated)
Elevation: 850 ft. / 259 m (estimated)
Variation: 02W (1985)
From city: 5 miles SW of KOKOMO, IN
Time zone: UTC -4 (UTC -5 during Standard Time)
Zip code: 46979

Airport Operations

Airport use: Open to the public
Activation date: 01/1968
Control tower: no
ARTCC: CHICAGO CENTER
FSS: TERRE HAUTE FLIGHT SERVICE STATION
NOTAMs facility: HUF (NOTAM-D service available)
Attendance: MON-FRI DAYLIGHT HOURS
Wind indicator: yes
Segmented circle: no

Airport Communications

CTAF: 122.9
WX AWOS-3PT at OKK (9 nm NE): 113.5 (765-452-3014)
WX AWOS-3P at GGP (18 nm NW): 118.5 (574-737-7310)
WX AWOS-3 at FKR (19 nm SW): 124.325 (765-654-0328)

Nearby radio navigation aids

VOR radial/distance  VOR name  Freq  Var
OKKr235/8.7KOKOMO VORTAC113.5005W
GUSr193/12.9GRISSOM VORTAC108.4502W
MZZr264/24.2MARION VOR/DME108.6003W
VHPr010/37.9BRICKYARD VORTAC116.3001E
MIEr291/38.8MUNCIE VOR/DME114.4003W

 
NDB name  Hdg/Dist  Freq  Var  ID
METROPOLITAN350/30.633803WUMP ..- -- .--.

Airport Services

Fuel available: 100LL MOGAS
Parking: tiedowns
Airframe service: MINOR
Powerplant service: MINOR

Runway Information

Runway 18/36

Dimensions: 2048 x 110 ft. / 624 x 34 m
RY 18/36 CROPS 55 FT L & R OF CL WHOLE LENGTH OF RY.
Surface: turf, in good condition
Runway edge markings: RY 18/36 DSPLCD THLDS MKD WITH YELLOW METAL MARKERS.
RUNWAY 18  RUNWAY 36
Latitude: 40-25.845833N40-25.508500N
Longitude: 086-12.066167W086-12.066167W
Elevation: 840.0 ft.840.0 ft.
Traffic pattern: leftleft
Displaced threshold: 292 ft.300 ft.
Runway end identifier lights: nono
Obstructions: 60 ft. pline, lighted, 875 ft. from runway, 14:1 slope to clear
APCH RATIO 21:1 TO DSPLCD THLD.
15 ft. road
APCH RATIO 20:1 TO DSPLCD THR.

Airport Ownership and Management from official FAA records

Ownership: Privately-owned
Owner: DALE ETHERINGTON
3490 S 400 W
KOKOMO, IN 46902
Phone (765) 438-8509
Manager: STEVE STANTS
3490 S 400 W
KOKOMO, IN 46902
Phone (765) 319-3295

Airport Operational Statistics

Aircraft based on the field: 18
Single engine airplanes: 18
    
Aircraft operations: avg 75/week *
75% local general aviation
25% transient general aviation
* for 12-month period ending 31 December 2017

Additional Remarks

FOR CD CTC CHICAGO ARTCC AT 630-906-8921.

Instrument Procedures

There are no published instrument procedures at 8I3.

Some nearby airports with instrument procedures:

KOKK - Kokomo Municipal Airport (9 nm NE)
KGUS - Grissom Air Reserve Base (13 nm N)
5I4 - Sheridan Airport (15 nm S)
KGGP - Logansport/Cass County Airport (18 nm NW)
KFKR - Frankfort Municipal Airport (19 nm SW)
 
Loc | Ops | Rwys | IFR | FBO | Links
Com | Nav | Svcs | Stats | Notes
Area around 8I3 (Glenndale Airport)
 
Road maps at: MapQuest Bing Google
 
Aerial photo
WARNING: Photo may not be current or correct
Aerial photo of 8I3 (Glenndale Airport)
Photo by Laura Garman

Do you have a better or more recent aerial photo of Glenndale Airport that you would like to share? If so, please send us your photo.

 
Sectional chart

 
Airport distance calculator
Flying to Glenndale Airport? Find the distance to fly.

From to 8I3

Sunrise and sunset
Times for 05-Aug-2020
 Local
(UTC-4)
 Zulu
(UTC)
Morning civil twilight06:1810:18
Sunrise06:4810:48
Sunset20:5300:53
Evening civil twilight21:2401:24

Current date and time
Zulu (UTC)  05-Aug-2020 21:09:34
Local (UTC-4)  05-Aug-2020 17:09:34
 
METAR
KOKK 
9nm NE 
052056Z AUTO VRB06KT 10SM BKN060 24/12 A3014 RMK AO2 SLP204 T02440122 58006
KGUS 
12nm N 
052056Z AUTO 07005KT 10SM BKN060 22/12 A3012 RMK AO2 SLP202 T02230117 57007 $
KGGP 
18nm NW 
052057Z AUTO 00000KT 10SM BKN060 22/11 A3013 RMK AO2
KFKR 
19nm SW 
052055Z AUTO 05005KT 10SM SCT047 OVC060 22/12 A3015 RMK AO2 T02240115
TAF
KGUS 
12nm N 
051900Z 0519/0701 36006KT 9999 SCT050 QNH3009INS TX23/0619Z TN11/0611Z
NOTAMs
Click for the latest NOTAMs
NOTAMs are issued by the DoD/FAA and will open in a separate window not controlled by AirNav.

 

 
 

Would you like to see your business listed on this page?

 If your business provides an interesting product or service to pilots, flight crews, aircraft, or users of the Glenndale Airport, you should consider listing it here.  To start the listing process, click on the button below
 
Add a business
 

Other Pages about Glenndale Airport

www.glenndale.net
 
Update a link
 
Copyright © AirNav, LLC. All rights reserved. Privacy Policy  Contact